Time;durP1;ratioP1;P1;durP2;ratioP2;P2;SDS_P1;SDS_P2;PMS_P1;PMS_P2;Temp;Humidity;BMP_temperature;BMP_pressure;BME280_temperature;BME280_humidity;BME280_pressure;Samples;Min_cycle;Max_cycle;Signal;HPM_P1;HPM_P2
2022/04/04 00:00:47;;;;;;;3.22;2.08;;;;;;;0.35;59.62;98999.53;4151620;28;20201;-56
2022/04/04 00:02:49;;;;;;;2.67;2.47;;;;;;;0.32;59.65;99007.09;4136739;28;20226;-57
2022/04/04 00:04:50;;;;;;;2.72;2.63;;;;;;;0.26;60.03;99005.97;4135583;28;20213;-56
2022/04/04 00:06:52;;;;;;;2.17;2.08;;;;;;;0.19;60.37;98998.75;4154779;28;20208;-56
2022/04/04 00:08:54;;;;;;;2.20;2.10;;;;;;;0.24;60.24;99008.00;4154728;28;20236;-55
2022/04/04 00:10:56;;;;;;;2.60;2.50;;;;;;;0.23;59.96;99011.69;4141883;28;20716;-56
2022/04/04 00:12:58;;;;;;;1.90;1.80;;;;;;;0.29;60.05;99013.69;4135572;28;20359;-57
2022/04/04 00:14:59;;;;;;;2.33;2.23;;;;;;;0.33;60.02;98996.19;4154047;28;20209;-56
2022/04/04 00:17:01;;;;;;;2.00;1.90;;;;;;;0.34;60.03;99005.09;4137943;28;20439;-57
2022/04/04 00:19:05;;;;;;;2.50;2.40;;;;;;;0.31;60.09;98997.38;4137213;28;20259;-57
2022/04/04 00:21:07;;;;;;;2.40;2.30;;;;;;;0.26;60.23;98997.88;4154872;28;20232;-56
2022/04/04 00:23:12;;;;;;;2.97;2.77;;;;;;;0.29;60.31;98989.47;4153337;28;20255;-57
2022/04/04 00:25:14;;;;;;;3.45;3.22;;;;;;;0.25;60.24;98981.91;4137547;28;20682;-57
2022/04/04 00:27:16;;;;;;;3.78;3.47;;;;;;;0.23;60.18;98984.81;4137862;28;20707;-56
2022/04/04 00:29:18;;;;;;;2.33;2.23;;;;;;;0.13;60.47;98978.75;4139763;28;20233;-55
2022/04/04 00:31:20;;;;;;;2.60;2.43;;;;;;;0.05;60.81;98977.94;4151186;28;21249;-56
2022/04/04 00:33:22;;;;;;;2.40;2.30;;;;;;;0.06;60.79;98977.78;4152381;28;20594;-57
2022/04/04 00:35:24;;;;;;;2.40;2.30;;;;;;;0.07;60.78;98974.06;4152991;28;20645;-56
2022/04/04 00:37:26;;;;;;;2.20;2.10;;;;;;;0.07;60.80;98976.75;4154771;28;20209;-55
2022/04/04 00:39:28;;;;;;;2.57;2.40;;;;;;;0.02;60.82;98976.44;4152706;28;20208;-55
2022/04/04 00:41:30;;;;;;;2.50;2.40;;;;;;;0.00;60.67;98973.09;4157818;28;20204;-56
2022/04/04 00:43:32;;;;;;;2.97;2.73;;;;;;;0.03;60.37;98975.44;4141072;28;20229;-57
2022/04/04 00:45:33;;;;;;;3.67;3.42;;;;;;;0.03;60.93;98967.38;4139369;28;20656;-56
2022/04/04 00:47:35;;;;;;;2.87;2.77;;;;;;;0.03;60.80;98967.38;4122239;28;20277;-56
2022/04/04 00:49:37;;;;;;;1.63;1.53;;;;;;;0.03;60.73;98967.38;4137114;28;20283;-55
2022/04/04 00:51:39;;;;;;;2.07;1.97;;;;;;;0.05;61.03;98965.34;4138400;28;20279;-56
2022/04/04 00:53:41;;;;;;;2.50;2.40;;;;;;;0.05;60.53;98962.66;4154445;28;20201;-55
2022/04/04 00:55:43;;;;;;;1.87;1.87;;;;;;;0.06;60.86;98960.78;4154626;28;20201;-55
2022/04/04 00:57:45;;;;;;;2.30;2.20;;;;;;;0.02;61.23;98954.09;4154341;28;20209;-56
2022/04/04 00:59:47;;;;;;;2.47;2.37;;;;;;;-0.03;60.98;98951.94;4153132;28;20208;-56
2022/04/04 01:01:49;;;;;;;2.50;2.40;;;;;;;-0.06;61.02;98952.25;4131466;28;20240;-55
2022/04/04 01:03:51;;;;;;;3.33;3.23;;;;;;;-0.09;60.84;98950.94;4152057;28;20695;-56
2022/04/04 01:05:55;;;;;;;2.63;2.53;;;;;;;-0.15;61.30;98962.38;4132234;28;20210;-55
2022/04/04 01:07:57;;;;;;;2.57;2.47;;;;;;;-0.18;61.32;98955.50;4134050;28;20232;-56
2022/04/04 01:09:58;;;;;;;2.77;2.30;;;;;;;-0.20;61.43;98954.00;4150399;28;20217;-56
2022/04/04 01:12:08;;;;;;;4.10;2.43;;;;;;;-0.24;61.31;98952.66;4134689;28;20233;-55
2022/04/04 01:14:10;;;;;;;4.83;2.40;;;;;;;-0.26;61.47;98950.16;4149386;28;20376;-56
2022/04/04 01:16:12;;;;;;;2.30;2.23;;;;;;;-0.24;61.60;98955.34;4135402;28;20767;-55
2022/04/04 01:18:14;;;;;;;2.00;2.00;;;;;;;-0.26;61.39;98954.69;4134849;28;20205;-56
2022/04/04 01:20:16;;;;;;;2.20;2.00;;;;;;;-0.32;61.12;98948.16;4152589;28;20237;-56
2022/04/04 01:22:19;;;;;;;2.90;2.80;;;;;;;-0.33;61.66;98951.00;4149524;28;20225;-55
2022/04/04 01:24:21;;;;;;;2.20;2.10;;;;;;;-0.40;61.72;98939.25;4151927;28;20204;-54
2022/04/04 01:26:23;;;;;;;2.57;2.37;;;;;;;-0.45;61.91;98942.47;4152964;28;20579;-55
2022/04/04 01:28:25;;;;;;;2.53;2.43;;;;;;;-0.50;61.60;98935.91;4147809;28;20402;-55
2022/04/04 01:30:27;;;;;;;2.40;2.30;;;;;;;-0.53;61.85;98931.72;4152195;28;20925;-54
2022/04/04 01:32:29;;;;;;;2.60;2.43;;;;;;;-0.59;61.77;98936.94;4151255;28;20220;-55
2022/04/04 01:34:31;;;;;;;2.47;2.37;;;;;;;-0.65;62.35;98935.78;4150504;28;21026;-56
2022/04/04 01:36:33;;;;;;;2.87;2.67;;;;;;;-0.58;62.17;98939.44;4150258;28;20216;-56
2022/04/04 01:38:34;;;;;;;4.17;2.90;;;;;;;-0.63;62.24;98933.75;4153478;28;20212;-54
2022/04/04 01:40:36;;;;;;;2.47;2.37;;;;;;;-0.63;62.27;98932.88;4154280;28;20264;-54
2022/04/04 01:42:38;;;;;;;2.43;2.33;;;;;;;-0.74;62.30;98928.69;4133351;28;20271;-54
2022/04/04 01:44:40;;;;;;;2.77;2.57;;;;;;;-0.74;62.51;98923.34;4153016;28;20661;-55
2022/04/04 01:46:42;;;;;;;2.47;2.37;;;;;;;-0.79;62.35;98930.22;4133241;28;20640;-55
2022/04/04 01:48:44;;;;;;;2.37;2.27;;;;;;;-0.79;62.62;98924.84;4134116;28;20680;-55
2022/04/04 01:50:45;;;;;;;2.40;2.30;;;;;;;-0.81;62.59;98932.25;4136985;28;20233;-55
2022/04/04 01:53:25;;;;;;;2.53;2.40;;;;;;;-0.85;62.69;98931.75;4132790;28;20224;-56
2022/04/04 01:55:10;;;;;;;2.30;2.20;;;;;;;-0.83;62.60;98929.72;4130325;28;20663;-56
2022/04/04 01:57:12;;;;;;;5.60;2.47;;;;;;;-0.84;62.38;98927.19;4131158;28;20320;-56
2022/04/04 01:59:14;;;;;;;2.73;2.63;;;;;;;-0.79;62.84;98930.22;4131796;28;20300;-56
2022/04/04 02:01:18;;;;;;;3.27;3.07;;;;;;;-0.77;62.58;98933.56;4132803;28;20255;-56
2022/04/04 02:03:20;;;;;;;2.07;1.97;;;;;;;-0.77;62.58;98928.19;4146924;28;20283;-56
2022/04/04 02:05:22;;;;;;;2.20;2.10;;;;;;;-0.85;62.73;98933.59;4132412;28;20213;-56
2022/04/04 02:07:24;;;;;;;2.37;2.27;;;;;;;-0.96;63.16;98933.91;4150862;28;20204;-56
2022/04/04 02:09:26;;;;;;;2.17;2.10;;;;;;;-0.94;63.47;98924.69;4148783;28;20267;-56
2022/04/04 02:11:27;;;;;;;2.03;1.93;;;;;;;-0.96;63.17;98929.38;4153123;28;20216;-56
2022/04/04 02:13:29;;;;;;;2.50;2.40;;;;;;;-0.93;63.05;98930.91;4153641;28;20228;-56
2022/04/04 02:15:31;;;;;;;2.53;2.43;;;;;;;-0.94;62.89;98926.56;4132398;28;20213;-56
2022/04/04 02:17:33;;;;;;;1.90;1.80;;;;;;;-0.96;63.04;98921.34;4130623;28;20210;-56
2022/04/04 02:19:34;;;;;;;2.70;2.50;;;;;;;-0.93;63.52;98923.69;4149585;28;20239;-55
2022/04/04 02:21:37;;;;;;;2.83;2.73;;;;;;;-0.97;63.39;98918.81;4132422;28;20210;-57
2022/04/04 02:23:39;;;;;;;2.80;2.70;;;;;;;-0.93;63.71;98928.22;4147870;28;20229;-57
2022/04/04 02:25:40;;;;;;;2.47;2.37;;;;;;;-0.94;63.54;98926.56;4150391;28;20285;-57
2022/04/04 02:27:42;;;;;;;3.17;3.07;;;;;;;-0.94;63.59;98921.19;4131994;28;20244;-56
2022/04/04 02:29:44;;;;;;;2.47;2.27;;;;;;;-0.91;63.40;98926.19;4132948;28;20217;-55
2022/04/04 02:31:45;;;;;;;2.03;1.93;;;;;;;-0.92;63.12;98920.00;4149432;28;20279;-56
2022/04/04 02:33:47;;;;;;;2.33;2.23;;;;;;;-0.91;63.04;98921.69;4134391;28;20256;-55
2022/04/04 02:35:51;;;;;;;1.93;1.90;;;;;;;-0.91;63.23;98910.09;4136063;28;20205;-56
2022/04/04 02:37:53;;;;;;;2.67;2.57;;;;;;;-0.90;63.43;98915.28;4134334;28;20217;-56
2022/04/04 02:39:54;;;;;;;2.50;2.30;;;;;;;-0.95;63.12;98917.63;4135005;28;20198;-55
2022/04/04 02:41:56;;;;;;;2.50;2.40;;;;;;;-1.02;63.71;98907.75;4152500;28;20310;-55
2022/04/04 02:43:58;;;;;;;2.43;2.33;;;;;;;-1.04;63.62;98915.97;4147299;28;20243;-55
2022/04/04 02:46:00;;;;;;;2.97;2.87;;;;;;;-1.07;64.08;98910.09;4150003;28;20209;-56
2022/04/04 02:48:02;;;;;;;2.97;2.80;;;;;;;-1.14;64.21;98906.41;4134622;28;20332;-56
2022/04/04 02:50:04;;;;;;;3.43;3.23;;;;;;;-1.05;64.05;98918.81;4152031;28;20275;-55
2022/04/04 02:52:06;;;;;;;3.67;3.47;;;;;;;-1.07;63.49;98915.47;4150731;28;21133;-56
2022/04/04 02:54:08;;;;;;;3.23;3.07;;;;;;;-1.01;63.48;98915.63;4135515;28;20268;-55
2022/04/04 02:58:30;;;;;;;2.97;2.87;;;;;;;-1.05;63.42;98910.75;4139057;28;20237;-55
2022/04/04 03:00:31;;;;;;;3.37;3.07;;;;;;;-1.09;63.95;98906.75;4136903;28;20252;-54
2022/04/04 03:02:33;;;;;;;2.90;2.80;;;;;;;-1.11;63.98;98903.38;4154252;28;20303;-55
2022/04/04 03:04:39;;;;;;;3.27;3.17;;;;;;;-1.15;64.01;98904.72;4136794;28;20301;-54
2022/04/04 03:06:41;;;;;;;2.40;2.30;;;;;;;-1.10;64.07;98899.69;4155128;28;20679;-55
2022/04/04 03:08:43;;;;;;;4.23;3.93;;;;;;;-1.08;63.65;98908.44;4154428;28;20201;-55
2022/04/04 03:10:46;;;;;;;3.67;3.57;;;;;;;-0.99;63.44;98904.72;4138420;28;20261;-56
2022/04/04 03:12:49;;;;;;;3.40;3.20;;;;;;;-1.05;63.97;98900.03;4134452;28;20595;-55
2022/04/04 03:14:51;;;;;;;2.77;2.67;;;;;;;-1.06;63.41;98901.03;4137324;28;20218;-55
2022/04/04 03:16:52;;;;;;;3.50;3.30;;;;;;;-1.12;63.41;98897.19;4156466;28;21649;-54
2022/04/04 03:18:54;;;;;;;2.63;2.53;;;;;;;-1.15;63.61;98896.69;4154663;28;20219;-56
2022/04/04 03:20:56;;;;;;;5.03;3.17;;;;;;;-1.24;63.53;98897.66;4153969;28;20228;-55
2022/04/04 03:22:58;;;;;;;2.57;2.37;;;;;;;-0.96;63.68;98893.63;4159458;28;20292;-56
2022/04/04 03:25:00;;;;;;;2.40;2.30;;;;;;;-1.13;63.43;98889.28;4152497;28;20726;-56
2022/04/04 03:27:02;;;;;;;3.03;2.93;;;;;;;-1.16;63.67;98885.09;4155139;28;20213;-55
2022/04/04 03:29:04;;;;;;;3.27;3.07;;;;;;;-1.17;63.66;98887.94;4156186;28;20641;-56
2022/04/04 03:31:06;;;;;;;3.03;2.93;;;;;;;-1.24;63.68;98885.09;4154310;28;20236;-55
2022/04/04 03:33:07;;;;;;;4.37;3.97;;;;;;;-1.26;63.86;98881.75;4138985;28;20320;-56
2022/04/04 03:35:09;;;;;;;6.27;3.60;;;;;;;-1.25;63.67;98879.88;4135155;28;20264;-57
2022/04/04 03:37:11;;;;;;;2.43;2.33;;;;;;;-1.25;63.64;98880.75;4149732;28;20256;-57
2022/04/04 03:39:16;;;;;;;2.90;2.70;;;;;;;-1.24;63.57;98871.69;4151270;28;20264;-56
2022/04/04 03:41:17;;;;;;;2.97;2.87;;;;;;;-1.22;63.42;98871.53;4154450;28;20209;-57
2022/04/04 03:43:19;;;;;;;2.70;2.60;;;;;;;-1.22;63.71;98868.84;4133878;28;20257;-55
2022/04/04 03:45:24;;;;;;;2.90;2.80;;;;;;;-1.22;63.71;98872.34;4135515;28;20216;-56
2022/04/04 03:47:26;;;;;;;3.43;3.20;;;;;;;-1.21;63.28;98874.00;4137848;28;20197;-55
2022/04/04 03:49:27;;;;;;;2.27;2.17;;;;;;;-1.18;63.84;98876.38;4152116;28;20205;-55
2022/04/04 03:51:29;;;;;;;2.23;2.23;;;;;;;-1.19;63.62;98873.84;4151917;28;20232;-55
2022/04/04 03:53:31;;;;;;;2.50;2.40;;;;;;;-1.21;63.63;98874.00;4151023;28;20279;-55
2022/04/04 03:55:38;;;;;;;2.30;2.20;;;;;;;-1.21;63.78;98867.81;4152147;28;20240;-55
2022/04/04 03:57:40;;;;;;;2.97;2.87;;;;;;;-1.32;64.31;98860.09;4148091;28;20719;-56
2022/04/04 03:59:43;;;;;;;3.07;2.97;;;;;;;-1.38;64.49;98858.94;4150399;28;20204;-57
2022/04/04 04:01:45;;;;;;;3.07;2.97;;;;;;;-1.44;65.30;98859.59;4132341;28;20205;-56
2022/04/04 04:03:47;;;;;;;3.13;3.03;;;;;;;-1.40;65.27;98865.47;4132976;28;20937;-58
2022/04/04 04:05:48;;;;;;;3.60;3.30;;;;;;;-1.36;65.31;98866.78;4117915;28;20237;-55
2022/04/04 04:07:51;;;;;;;3.20;2.97;;;;;;;-1.29;64.83;98862.47;4153156;28;20670;-57
2022/04/04 04:09:53;;;;;;;4.50;4.20;;;;;;;-1.28;64.50;98858.78;4151885;28;20205;-57
2022/04/04 04:11:56;;;;;;;3.37;3.13;;;;;;;-1.29;64.64;98860.59;4135996;28;20214;-56
2022/04/04 04:14:00;;;;;;;3.70;3.40;;;;;;;-1.28;64.59;98858.78;4137520;28;20210;-57
2022/04/04 04:16:02;;;;;;;3.10;2.90;;;;;;;-1.31;64.85;98851.88;4141202;28;20785;-57
2022/04/04 04:18:04;;;;;;;3.70;3.50;;;;;;;-1.19;64.51;98852.38;4134351;28;20648;-56
2022/04/04 04:20:19;;;;;;;3.17;3.03;;;;;;;-1.25;64.76;98842.31;4151862;28;20247;-55
2022/04/04 04:22:21;;;;;;;3.53;3.37;;;;;;;-1.30;64.69;98848.19;4148087;28;20228;-57
2022/04/04 04:24:23;;;;;;;4.20;4.00;;;;;;;-1.22;64.61;98844.69;4139763;28;20209;-56
2022/04/04 04:26:25;;;;;;;3.17;3.07;;;;;;;-1.24;64.29;98844.84;4151508;28;20209;-56
2022/04/04 04:28:27;;;;;;;4.50;4.30;;;;;;;-1.26;64.83;98848.69;4136592;28;20294;-57
2022/04/04 04:30:29;;;;;;;4.07;3.80;;;;;;;-1.35;65.22;98841.66;4136856;28;20225;-57
2022/04/04 04:32:31;;;;;;;4.03;3.83;;;;;;;-1.32;64.73;98841.31;4135804;28;20784;-57
2022/04/04 04:34:34;;;;;;;3.23;2.97;;;;;;;-1.28;64.75;98848.03;4140432;28;20217;-57
2022/04/04 04:36:37;;;;;;;3.93;3.73;;;;;;;-1.29;64.65;98841.00;4135535;28;20279;-57
2022/04/04 04:38:38;;;;;;;2.93;2.83;;;;;;;-1.30;64.57;98839.28;4149716;28;20271;-57
2022/04/04 04:40:40;;;;;;;3.60;3.40;;;;;;;-1.30;64.42;98837.47;4150820;28;20302;-56
2022/04/04 04:42:44;;;;;;;3.63;3.43;;;;;;;-1.31;64.66;98834.94;4136092;28;20225;-56
2022/04/04 04:44:46;;;;;;;2.67;2.57;;;;;;;-1.31;64.60;98842.97;4149819;28;20659;-56
2022/04/04 04:46:48;;;;;;;3.93;3.73;;;;;;;-1.29;64.35;98846.34;4129568;28;20765;-57
2022/04/04 04:48:50;;;;;;;3.20;3.00;;;;;;;-1.27;64.63;98844.34;4154927;28;20289;-56
2022/04/04 04:50:52;;;;;;;3.57;3.43;;;;;;;-1.23;64.74;98837.59;4131039;28;20233;-57
2022/04/04 04:52:55;;;;;;;2.53;2.43;;;;;;;-1.22;64.71;98832.06;4134341;28;20222;-57
2022/04/04 04:54:57;;;;;;;2.87;2.70;;;;;;;-1.19;64.74;98836.28;4131643;28;20202;-57
2022/04/04 04:56:59;;;;;;;3.53;3.40;;;;;;;-1.17;64.64;98834.25;4148759;28;20237;-56
2022/04/04 04:59:09;;;;;;;5.07;4.67;;;;;;;-1.18;64.66;98837.94;4155193;28;20772;-57
2022/04/04 05:01:13;;;;;;;4.13;3.93;;;;;;;-1.18;64.63;98843.31;4153581;28;20212;-57
2022/04/04 05:03:27;;;;;;;3.60;3.40;;;;;;;-1.17;65.28;98824.38;4139891;28;20221;-57
2022/04/04 05:05:28;;;;;;;4.40;4.10;;;;;;;-1.21;65.24;98824.88;4137498;28;20296;-55
2022/04/04 05:07:33;;;;;;;3.87;3.67;;;;;;;-1.16;64.71;98819.81;4153069;28;20251;-56
2022/04/04 05:09:35;;;;;;;3.63;3.43;;;;;;;-1.12;65.19;98821.16;4154308;28;20737;-55
2022/04/04 05:11:37;;;;;;;5.17;4.90;;;;;;;-1.14;65.25;98817.81;4157396;28;20282;-56
2022/04/04 05:13:39;;;;;;;3.30;3.20;;;;;;;-1.14;65.13;98812.47;4137375;28;20759;-57
2022/04/04 05:15:42;;;;;;;5.27;4.97;;;;;;;-1.20;65.44;98813.13;4142111;28;20695;-56
2022/04/04 05:17:44;;;;;;;3.67;3.47;;;;;;;-1.21;65.76;98806.09;4152770;28;20212;-55
2022/04/04 05:19:45;;;;;;;8.03;3.53;;;;;;;-1.13;65.51;98803.38;4146520;28;22113;-54
2022/04/04 05:21:47;;;;;;;5.77;3.73;;;;;;;-1.11;65.36;98807.59;4149315;28;20741;-55
2022/04/04 05:23:49;;;;;;;3.87;3.67;;;;;;;-1.12;65.23;98815.81;4146245;28;20205;-53
2022/04/04 05:25:51;;;;;;;3.33;3.23;;;;;;;-1.12;65.33;98807.75;4121089;28;20779;-57
2022/04/04 05:27:57;;;;;;;5.20;3.50;;;;;;;-1.08;65.94;98811.78;4134378;28;20590;-55
2022/04/04 05:30:00;;;;;;;5.07;4.65;;;;;;;-1.17;65.50;98812.78;4135944;28;20461;-57
2022/04/04 05:32:03;;;;;;;5.23;4.90;;;;;;;-1.28;66.41;98813.97;4137967;28;20659;-53
2022/04/04 05:34:04;;;;;;;3.77;3.53;;;;;;;-1.29;65.88;98812.28;4119700;28;20296;-54
2022/04/04 05:36:07;;;;;;;3.27;3.10;;;;;;;-1.24;65.62;98806.41;4140960;28;20272;-55
2022/04/04 05:38:18;;;;;;;3.30;3.10;;;;;;;-1.21;65.56;98811.47;4153541;28;20637;-55
2022/04/04 05:40:25;;;;;;;4.60;4.30;;;;;;;-1.21;65.67;98806.09;4144091;28;21198;-55
2022/04/04 05:42:28;;;;;;;3.07;2.87;;;;;;;-1.21;65.40;98811.47;4153576;28;20318;-52
2022/04/04 05:44:32;;;;;;;4.50;4.23;;;;;;;-1.20;65.63;98813.94;4139443;28;20201;-53
2022/04/04 05:46:47;;;;;;;3.03;2.83;;;;;;;-1.19;65.53;98810.28;4153315;28;20793;-53
2022/04/04 05:48:57;;;;;;;3.33;3.23;;;;;;;-1.19;65.80;98814.81;4153373;28;20213;-53
2022/04/04 05:50:59;;;;;;;3.97;3.77;;;;;;;-1.19;65.72;98812.97;4155362;28;20237;-54
2022/04/04 05:53:01;;;;;;;4.53;4.20;;;;;;;-1.16;65.74;98817.13;4138336;28;20236;-54
2022/04/04 05:55:06;;;;;;;3.57;3.37;;;;;;;-1.13;65.62;98814.97;4157388;28;20217;-54
2022/04/04 05:57:08;;;;;;;4.30;4.00;;;;;;;-1.12;65.44;98813.97;4135782;28;20825;-52
2022/04/04 05:59:13;;;;;;;4.03;3.77;;;;;;;-1.00;65.50;98806.41;4119258;28;20273;-52
2022/04/04 06:01:16;;;;;;;3.57;3.37;;;;;;;-0.94;65.69;98813.78;4154290;28;20207;-53
2022/04/04 06:03:29;;;;;;;4.20;4.00;;;;;;;-0.81;66.95;98812.22;4139268;28;20240;-53
2022/04/04 06:05:34;;;;;;;3.63;3.43;;;;;;;-0.78;66.27;98813.72;4155497;28;20584;-54
2022/04/04 06:07:38;;;;;;;4.00;3.60;;;;;;;-0.80;66.60;98811.19;4153555;28;20233;-53
2022/04/04 06:09:41;;;;;;;5.00;4.60;;;;;;;-0.91;66.36;98813.41;4151948;28;20491;-54
2022/04/04 06:11:42;;;;;;;4.93;4.73;;;;;;;-0.95;66.74;98812.09;4122529;28;20506;-52
2022/04/04 06:13:44;;;;;;;4.27;4.03;;;;;;;-0.91;66.65;98808.03;4151031;28;20674;-55
2022/04/04 06:15:47;;;;;;;4.97;4.47;;;;;;;-0.86;66.68;98816.44;4153160;28;20254;-53
2022/04/04 06:17:49;;;;;;;2.80;2.60;;;;;;;-0.79;66.84;98806.69;4151945;28;20255;-53
2022/04/04 06:19:51;;;;;;;3.70;3.50;;;;;;;-0.77;67.38;98805.50;4147929;28;22110;-54
2022/04/04 06:21:53;;;;;;;6.00;5.40;;;;;;;-0.73;67.20;98811.38;4139208;28;20538;-53
2022/04/04 06:23:55;;;;;;;3.67;3.40;;;;;;;-0.53;66.78;98818.03;4151035;28;20283;-55
2022/04/04 06:25:58;;;;;;;27.30;4.13;;;;;;;-0.37;67.38;98801.81;4136083;28;20695;-56
2022/04/04 06:28:00;;;;;;;2.97;2.77;;;;;;;-0.14;67.65;98808.13;4152658;28;20212;-55
2022/04/04 06:30:06;;;;;;;7.40;6.57;;;;;;;0.15;67.81;98818.00;4136901;28;20257;-55
2022/04/04 06:32:10;;;;;;;6.30;5.77;;;;;;;0.29;66.57;98814.56;4149890;28;20322;-55
2022/04/04 06:34:12;;;;;;;6.47;5.93;;;;;;;0.29;66.57;98811.88;4150333;28;20225;-56
2022/04/04 06:36:14;;;;;;;7.27;6.83;;;;;;;0.59;66.29;98813.69;4121522;28;20297;-55
2022/04/04 06:38:18;;;;;;;6.97;6.27;;;;;;;0.71;66.26;98806.84;4135123;28;20532;-55
2022/04/04 06:40:21;;;;;;;7.37;4.13;;;;;;;1.17;66.58;98811.16;4156489;28;20693;-55
2022/04/04 06:42:23;;;;;;;4.50;4.27;;;;;;;1.41;64.21;98812.75;4152639;28;20221;-53
2022/04/04 06:44:26;;;;;;;3.83;3.67;;;;;;;1.49;63.66;98813.47;4151801;28;20485;-55
2022/04/04 06:46:31;;;;;;;4.50;4.10;;;;;;;1.35;61.76;98817.00;4138850;28;20202;-55
2022/04/04 06:48:34;;;;;;;4.23;3.97;;;;;;;1.40;62.74;98817.28;4137657;28;20210;-54
2022/04/04 06:50:36;;;;;;;4.17;3.87;;;;;;;1.53;61.97;98814.78;4119998;28;20281;-53
2022/04/04 06:52:38;;;;;;;2.73;2.63;;;;;;;1.59;62.49;98808.66;4138748;28;20222;-54
2022/04/04 06:55:05;;;;;;;3.97;3.77;;;;;;;2.44;60.71;98799.72;4137344;28;20205;-52
2022/04/04 06:57:10;;;;;;;4.30;3.77;;;;;;;2.51;60.01;98795.22;4142624;28;20264;-53
2022/04/04 06:59:19;;;;;;;3.83;3.53;;;;;;;1.93;60.47;98789.19;4127860;28;20261;-54
2022/04/04 07:01:20;;;;;;;3.83;3.63;;;;;;;1.87;60.86;98785.38;4154962;28;20211;-55
2022/04/04 07:03:23;;;;;;;2.53;2.40;;;;;;;2.18;60.08;98783.25;4154061;28;20259;-54
2022/04/04 07:05:26;;;;;;;3.70;3.40;;;;;;;2.03;59.70;98779.75;4156287;28;20220;-54
2022/04/04 07:07:27;;;;;;;3.50;3.22;;;;;;;1.82;59.88;98785.09;4135306;28;20202;-53
2022/04/04 07:09:30;;;;;;;3.30;3.10;;;;;;;2.38;60.22;98778.91;4139439;28;20239;-54
2022/04/04 07:11:33;;;;;;;3.42;3.22;;;;;;;2.37;59.74;98774.53;4139825;28;20247;-53
2022/04/04 07:13:38;;;;;;;4.22;4.03;;;;;;;2.29;59.30;98773.81;4137744;28;20486;-57
2022/04/04 07:15:41;;;;;;;3.53;3.30;;;;;;;2.41;59.91;98767.69;4120717;28;20242;-55
2022/04/04 07:17:45;;;;;;;3.45;3.25;;;;;;;2.72;59.19;98773.63;4138893;28;20217;-54
2022/04/04 07:19:47;;;;;;;5.93;3.42;;;;;;;3.08;58.54;98770.78;4139270;28;20293;-55
2022/04/04 07:21:52;;;;;;;3.47;3.22;;;;;;;3.23;57.46;98769.66;4123231;28;20210;-56
2022/04/04 07:23:55;;;;;;;4.97;4.63;;;;;;;3.68;58.25;98768.28;4138852;28;20674;-55
2022/04/04 07:25:58;;;;;;;4.22;3.92;;;;;;;3.76;56.27;98755.41;4139729;28;20239;-54
2022/04/04 07:27:59;;;;;;;3.63;3.42;;;;;;;4.26;55.66;98757.66;4139056;28;20214;-54
2022/04/04 07:30:03;;;;;;;3.28;3.08;;;;;;;4.22;54.84;98752.88;4139646;28;20216;-53
2022/04/04 07:32:06;;;;;;;12.85;4.00;;;;;;;4.24;55.15;98759.75;4139519;28;20715;-55
2022/04/04 07:34:07;;;;;;;3.05;2.85;;;;;;;5.01;54.33;98763.59;4121976;28;20241;-55
2022/04/04 07:36:10;;;;;;;3.83;3.53;;;;;;;4.40;53.58;98753.94;4121656;28;20217;-54
2022/04/04 07:38:12;;;;;;;2.67;2.47;;;;;;;4.64;52.38;98756.06;4139394;28;20219;-56
2022/04/04 07:40:16;;;;;;;3.40;3.15;;;;;;;4.72;52.76;98764.00;4138950;28;20206;-55
2022/04/04 07:42:18;;;;;;;4.00;3.70;;;;;;;4.74;54.04;98761.91;4153692;28;20221;-54
2022/04/04 07:44:20;;;;;;;2.30;2.10;;;;;;;5.33;51.95;98751.88;4138681;28;20210;-54
2022/04/04 07:46:22;;;;;;;3.42;3.13;;;;;;;5.23;51.09;98756.91;4155718;28;20259;-53
2022/04/04 07:48:23;;;;;;;3.22;2.90;;;;;;;5.32;51.02;98744.78;4158194;28;20709;-54
2022/04/04 07:50:26;;;;;;;2.88;2.72;;;;;;;5.53;51.08;98747.25;4152253;28;20216;-53
2022/04/04 07:52:28;;;;;;;3.00;2.80;;;;;;;5.23;50.56;98746.88;4151186;28;20270;-53
2022/04/04 07:54:30;;;;;;;2.67;2.50;;;;;;;5.40;50.83;98736.44;4140291;28;20229;-54
2022/04/04 07:56:32;;;;;;;4.35;4.05;;;;;;;5.58;49.81;98739.31;4137982;28;20201;-54
2022/04/04 07:58:33;;;;;;;2.45;2.25;;;;;;;5.73;50.15;98742.59;4153763;28;20833;-54
2022/04/04 08:00:35;;;;;;;3.55;3.25;;;;;;;5.50;50.32;98734.13;4152601;28;20209;-54
2022/04/04 08:02:38;;;;;;;2.03;1.90;;;;;;;5.76;49.06;98728.63;4153139;28;20225;-53
2022/04/04 08:04:39;;;;;;;2.97;2.80;;;;;;;6.01;49.43;98724.13;4140830;28;20730;-52
2022/04/04 08:06:41;;;;;;;2.90;2.70;;;;;;;5.44;48.70;98729.53;4150036;28;20209;-53
2022/04/04 08:08:43;;;;;;;2.75;2.65;;;;;;;5.42;48.68;98728.94;4134415;28;20617;-52
2022/04/04 08:10:44;;;;;;;2.40;2.30;;;;;;;6.09;48.23;98723.91;4154313;28;20220;-53
2022/04/04 08:12:46;;;;;;;2.80;2.60;;;;;;;5.98;47.15;98713.72;4156052;28;20334;-52
2022/04/04 08:14:49;;;;;;;2.55;2.35;;;;;;;6.87;47.27;98726.09;4153767;28;20202;-53
2022/04/04 08:16:52;;;;;;;3.17;2.97;;;;;;;6.20;46.96;98718.63;4139999;28;20221;-52
2022/04/04 08:18:53;;;;;;;2.60;2.50;;;;;;;6.64;47.48;98712.28;4124245;28;20589;-53
2022/04/04 08:20:57;;;;;;;2.70;2.50;;;;;;;6.57;46.46;98711.47;4120522;28;20213;-52
2022/04/04 08:23:04;;;;;;;3.08;2.83;;;;;;;7.07;45.40;98705.00;4140765;28;20324;-53
2022/04/04 08:25:07;;;;;;;3.03;2.83;;;;;;;6.54;46.28;98703.75;4120195;28;20743;-53
2022/04/04 08:27:12;;;;;;;3.28;2.85;;;;;;;6.63;45.82;98689.66;4153593;28;20288;-54
2022/04/04 08:29:14;;;;;;;2.05;1.95;;;;;;;6.45;45.53;98699.66;4137469;28;20209;-54
2022/04/04 08:31:16;;;;;;;2.38;2.28;;;;;;;6.30;45.88;98685.53;4155312;28;20667;-53
2022/04/04 08:33:19;;;;;;;2.78;2.65;;;;;;;6.47;45.53;98683.94;4133528;28;20711;-54
2022/04/04 08:35:22;;;;;;;2.47;2.38;;;;;;;6.61;46.27;98682.78;4139418;28;20206;-53
2022/04/04 08:37:26;;;;;;;3.35;3.15;;;;;;;6.99;45.61;98678.91;4140881;28;20301;-54
2022/04/04 08:39:28;;;;;;;3.28;3.03;;;;;;;6.63;45.56;98677.97;4140152;28;21088;-52
2022/04/04 08:41:32;;;;;;;3.20;3.00;;;;;;;6.72;45.63;98673.94;4152159;28;20200;-53
2022/04/04 08:43:36;;;;;;;2.97;2.78;;;;;;;6.54;45.67;98671.13;4150320;28;20221;-53
2022/04/04 08:45:39;;;;;;;2.35;2.17;;;;;;;6.97;45.21;98677.47;4154111;28;20241;-53
2022/04/04 08:47:41;;;;;;;2.70;2.53;;;;;;;6.38;45.13;98671.69;4152165;28;20205;-53
2022/04/04 08:49:43;;;;;;;2.38;2.28;;;;;;;6.51;44.70;98671.59;4154173;28;20360;-54
2022/04/04 08:51:48;;;;;;;2.80;2.60;;;;;;;6.21;45.26;98665.94;4151106;28;20318;-53
2022/04/04 08:53:54;;;;;;;2.83;2.55;;;;;;;6.64;45.80;98671.47;4139811;28;20263;-55
2022/04/04 08:55:57;;;;;;;2.22;2.13;;;;;;;7.42;44.35;98665.31;4138872;28;20626;-53
2022/04/04 08:57:59;;;;;;;2.25;2.05;;;;;;;7.13;43.14;98660.56;4150987;28;20205;-54
2022/04/04 09:00:01;;;;;;;2.15;2.05;;;;;;;6.78;44.06;98667.59;4137532;28;20210;-52
2022/04/04 09:02:03;;;;;;;2.13;2.00;;;;;;;7.44;44.24;98653.13;4134684;28;20739;-54
2022/04/04 09:04:05;;;;;;;2.55;2.40;;;;;;;7.46;43.71;98656.44;4119639;28;20263;-53
2022/04/04 09:06:07;;;;;;;3.08;2.88;;;;;;;7.29;43.17;98649.09;4138441;28;20209;-53
2022/04/04 09:08:09;;;;;;;1.95;1.85;;;;;;;8.08;43.79;98645.16;4150774;28;20239;-54
2022/04/04 09:10:15;;;;;;;2.63;2.42;;;;;;;8.29;42.71;98649.31;4135839;28;20205;-53
2022/04/04 09:12:30;;;;;;;2.60;2.50;;;;;;;8.31;42.12;98645.28;4117004;28;20241;-54
2022/04/04 09:14:37;;;;;;;2.58;2.38;;;;;;;8.70;42.13;98643.81;4135006;28;20201;-54
2022/04/04 09:16:53;;;;;;;2.08;1.95;;;;;;;8.65;40.54;98636.34;4139616;28;20228;-54
2022/04/04 09:18:58;;;;;;;1.70;1.63;;;;;;;7.80;41.63;98641.34;4121469;28;20207;-53
2022/04/04 09:21:00;;;;;;;2.15;2.03;;;;;;;7.19;41.62;98625.13;4152817;28;20228;-54
2022/04/04 09:23:02;;;;;;;2.20;2.10;;;;;;;7.77;41.66;98626.31;4151602;28;20318;-52
2022/04/04 09:25:05;;;;;;;2.20;2.10;;;;;;;8.28;41.39;98629.38;4152003;28;20216;-52
2022/04/04 09:27:21;;;;;;;2.17;2.00;;;;;;;8.63;41.40;98626.75;4117202;28;20292;-52
2022/04/04 09:29:23;;;;;;;2.00;1.90;;;;;;;8.86;40.62;98616.69;4152509;28;20292;-52
2022/04/04 09:31:25;;;;;;;1.88;1.77;;;;;;;8.66;40.32;98620.81;4133806;28;20248;-53
2022/04/04 09:33:40;;;;;;;2.35;2.17;;;;;;;9.21;41.21;98608.50;4136969;28;20714;-52
2022/04/04 09:35:46;;;;;;;2.10;2.00;;;;;;;9.63;40.16;98597.09;4153933;28;20209;-53
2022/04/04 09:37:50;;;;;;;2.35;2.15;;;;;;;9.27;38.87;98585.66;4152538;28;20217;-54
2022/04/04 09:40:02;;;;;;;1.55;1.52;;;;;;;8.31;40.32;98589.91;4152308;28;20207;-52
2022/04/04 09:42:20;;;;;;;2.00;1.90;;;;;;;7.97;40.81;98575.13;4137033;28;20313;-54
2022/04/04 09:44:25;;;;;;;1.95;1.85;;;;;;;8.32;41.29;98584.25;4137935;28;20720;-52